createdAt,value
2023-07-16T00:01:57.483Z,1.44
2023-07-16T00:04:24.272Z,1.65
2023-07-16T00:06:51.038Z,1.67
2023-07-16T00:09:17.739Z,1.80
2023-07-16T00:11:44.457Z,1.73
2023-07-16T00:14:11.250Z,1.69
2023-07-16T00:16:39.373Z,1.68
2023-07-16T00:19:06.155Z,1.66
2023-07-16T00:21:32.845Z,1.64
2023-07-16T00:23:59.931Z,1.60
2023-07-16T00:26:26.647Z,1.52
2023-07-16T00:28:53.422Z,1.81
2023-07-16T00:31:20.277Z,1.88
2023-07-16T00:33:48.429Z,1.70
2023-07-16T00:36:15.522Z,1.63
2023-07-16T00:38:42.485Z,1.49
2023-07-16T00:41:09.999Z,1.45
2023-07-16T00:43:36.718Z,1.66
2023-07-16T00:46:03.532Z,1.65
2023-07-16T00:48:30.316Z,1.49
2023-07-16T00:50:58.463Z,1.66
2023-07-16T00:53:25.802Z,1.57
2023-07-16T00:55:52.519Z,1.45
2023-07-16T00:58:19.998Z,1.59
2023-07-16T01:00:46.699Z,1.35
2023-07-16T01:03:14.190Z,1.47
2023-07-16T01:05:45.733Z,1.56
2023-07-16T01:08:13.786Z,1.73
2023-07-16T01:10:40.559Z,1.59
2023-07-16T01:13:07.254Z,1.68
2023-07-16T01:15:34.010Z,1.61
2023-07-16T01:18:00.754Z,1.57
2023-07-16T01:20:27.507Z,1.53
2023-07-16T01:23:06.145Z,1.52
2023-07-16T01:25:49.569Z,1.47
2023-07-16T01:28:28.177Z,1.48
2023-07-16T01:30:56.255Z,1.66
2023-07-16T01:33:22.938Z,1.55
2023-07-16T01:35:49.679Z,1.64
2023-07-16T01:38:18.498Z,1.49
2023-07-16T01:40:45.327Z,1.48
2023-07-16T01:43:12.037Z,1.48
2023-07-16T01:45:38.790Z,1.49
2023-07-16T01:48:12.087Z,1.49
2023-07-16T01:50:38.855Z,1.58
2023-07-16T01:53:05.581Z,1.43
2023-07-16T01:55:32.283Z,1.44
2023-07-16T01:57:58.995Z,1.46
2023-07-16T02:00:25.744Z,1.36
2023-07-16T02:02:52.497Z,1.39
2023-07-16T02:05:20.652Z,1.35
2023-07-16T02:07:47.932Z,1.29
2023-07-16T02:10:14.665Z,1.53
2023-07-16T02:12:41.376Z,1.43
2023-07-16T02:15:08.499Z,1.34
2023-07-16T02:17:37.111Z,1.54
2023-07-16T02:20:04.530Z,1.38
2023-07-16T02:22:32.686Z,1.40
2023-07-16T02:24:59.470Z,1.51
2023-07-16T02:27:26.155Z,1.44
2023-07-16T02:29:52.888Z,1.45
2023-07-16T02:32:19.629Z,1.33
2023-07-16T02:34:46.382Z,1.46
2023-07-16T02:37:13.107Z,1.39
2023-07-16T02:39:42.353Z,1.39
2023-07-16T02:42:09.141Z,1.50
2023-07-16T02:44:35.863Z,1.54
2023-07-16T02:47:03.729Z,1.35
2023-07-16T02:49:30.460Z,1.51
2023-07-16T02:51:58.175Z,1.35
2023-07-16T02:54:24.873Z,1.29
2023-07-16T02:56:52.904Z,1.29
2023-07-16T02:59:19.603Z,1.38
2023-07-16T03:01:47.111Z,1.19
2023-07-16T03:04:14.628Z,1.44
2023-07-16T03:06:41.370Z,1.45
2023-07-16T03:09:08.063Z,1.38
2023-07-16T03:11:34.766Z,1.34
2023-07-16T03:14:02.875Z,1.48
2023-07-16T03:16:29.578Z,1.43
2023-07-16T03:18:56.288Z,1.58
2023-07-16T03:21:23.021Z,1.53
2023-07-16T03:23:49.735Z,1.56
2023-07-16T03:26:16.792Z,1.49
2023-07-16T03:28:43.684Z,1.45
2023-07-16T03:31:14.011Z,1.60
2023-07-16T03:33:42.915Z,1.52
2023-07-16T03:36:09.817Z,1.61
2023-07-16T03:38:36.555Z,1.48
2023-07-16T03:41:03.252Z,1.33
2023-07-16T03:43:30.413Z,1.51
2023-07-16T03:46:05.496Z,1.38
2023-07-16T03:48:33.592Z,1.49
2023-07-16T03:51:00.324Z,1.51
2023-07-16T03:53:28.490Z,1.54
2023-07-16T03:55:55.220Z,1.38
2023-07-16T03:58:22.018Z,1.48
2023-07-16T04:00:48.711Z,1.56
2023-07-16T04:03:15.510Z,1.30
2023-07-16T04:05:43.639Z,1.49
2023-07-16T04:08:10.335Z,1.34
2023-07-16T04:10:37.036Z,1.38
2023-07-16T04:13:03.726Z,1.56
2023-07-16T04:15:30.424Z,1.66
2023-07-16T04:17:57.291Z,1.67
2023-07-16T04:20:24.053Z,1.54
2023-07-16T04:22:52.200Z,1.70
2023-07-16T04:25:19.028Z,1.52
2023-07-16T04:27:45.732Z,1.61
2023-07-16T04:30:12.620Z,1.55
2023-07-16T04:32:39.353Z,1.56
2023-07-16T04:35:07.054Z,1.55
2023-07-16T04:37:33.738Z,1.49
2023-07-16T04:40:01.780Z,1.53
2023-07-16T04:42:28.463Z,1.49
2023-07-16T04:44:55.304Z,1.74
2023-07-16T04:47:21.993Z,1.51
2023-07-16T04:49:48.742Z,1.37
2023-07-16T04:52:15.444Z,1.42
2023-07-16T04:54:42.132Z,1.69
2023-07-16T04:57:10.228Z,1.67
2023-07-16T04:59:36.967Z,1.54
2023-07-16T05:02:06.037Z,1.63
2023-07-16T05:04:33.009Z,1.67
2023-07-16T05:06:59.802Z,1.62
2023-07-16T05:09:26.656Z,1.86
2023-07-16T05:11:53.362Z,1.55
2023-07-16T05:14:21.395Z,1.77
2023-07-16T05:16:48.165Z,1.75
2023-07-16T05:19:14.879Z,1.42
2023-07-16T05:21:41.686Z,1.62
2023-07-16T05:24:08.379Z,1.64
2023-07-16T05:26:35.079Z,1.68
2023-07-16T05:29:01.777Z,1.83
2023-07-16T05:31:29.817Z,1.58
2023-07-16T05:33:56.544Z,1.62
2023-07-16T05:36:23.272Z,1.69
2023-07-16T05:38:49.968Z,1.55
2023-07-16T05:41:17.143Z,1.73
2023-07-16T05:43:43.824Z,1.77
2023-07-16T05:46:10.583Z,1.56
2023-07-16T05:48:38.692Z,1.83
2023-07-16T05:51:05.471Z,1.74
2023-07-16T05:53:32.158Z,1.54
2023-07-16T05:55:58.875Z,1.68
2023-07-16T05:58:25.561Z,1.81
2023-07-16T06:00:52.282Z,1.74
2023-07-16T06:03:19.063Z,1.68
2023-07-16T06:05:47.248Z,1.69
2023-07-16T06:08:13.962Z,1.72
2023-07-16T06:10:40.711Z,1.54
2023-07-16T06:13:07.411Z,1.68
2023-07-16T06:15:34.123Z,1.65
2023-07-16T06:18:00.995Z,1.45
2023-07-16T06:20:27.812Z,1.57
2023-07-16T06:22:55.897Z,1.61
2023-07-16T06:25:22.608Z,1.58
2023-07-16T06:27:49.325Z,1.62
2023-07-16T06:30:16.105Z,1.67
2023-07-16T06:32:42.818Z,1.68
2023-07-16T06:35:09.829Z,1.69
2023-07-16T06:37:36.574Z,1.73
2023-07-16T06:40:05.839Z,1.71
2023-07-16T06:42:32.562Z,1.64
2023-07-16T06:44:59.247Z,1.55
2023-07-16T06:47:25.974Z,1.66
2023-07-16T06:49:52.771Z,1.69
2023-07-16T06:52:20.040Z,1.79
2023-07-16T06:54:46.759Z,1.58
2023-07-16T06:57:14.815Z,1.75
2023-07-16T06:59:41.506Z,1.72
2023-07-16T07:02:08.215Z,1.72
2023-07-16T07:04:34.900Z,1.90
2023-07-16T07:07:01.640Z,1.74
2023-07-16T07:09:28.334Z,1.80
2023-07-16T07:11:55.053Z,1.75
2023-07-16T07:14:23.096Z,2.06
2023-07-16T07:16:49.818Z,1.65
2023-07-16T07:19:16.580Z,1.75
2023-07-16T07:21:43.328Z,1.92
2023-07-16T07:24:10.104Z,1.85
2023-07-16T07:26:36.820Z,1.92
2023-07-16T07:29:03.528Z,1.89
2023-07-16T07:31:31.624Z,1.90
2023-07-16T07:33:58.406Z,2.04
2023-07-16T07:36:25.262Z,1.98
2023-07-16T07:38:51.983Z,1.95
2023-07-16T07:41:18.672Z,1.85
2023-07-16T07:43:45.441Z,1.90
2023-07-16T07:46:12.137Z,2.03
2023-07-16T07:48:40.186Z,2.13
2023-07-16T07:51:06.865Z,1.88
2023-07-16T07:53:33.586Z,1.85
2023-07-16T07:56:00.272Z,2.01
2023-07-16T07:58:26.977Z,1.93
2023-07-16T08:00:53.698Z,2.24
2023-07-16T08:03:20.513Z,1.82
2023-07-16T08:05:50.406Z,1.94
2023-07-16T08:08:17.219Z,2.12
2023-07-16T08:10:43.958Z,2.00
2023-07-16T08:13:10.698Z,2.08
2023-07-16T08:15:37.386Z,2.08
2023-07-16T08:18:04.153Z,1.93
2023-07-16T08:20:30.858Z,2.16
2023-07-16T08:22:59.034Z,2.02
2023-07-16T08:25:25.758Z,1.99
2023-07-16T08:27:52.488Z,1.96
2023-07-16T08:30:19.219Z,2.07
2023-07-16T08:32:46.003Z,2.12
2023-07-16T08:35:12.811Z,2.26
2023-07-16T08:37:39.521Z,2.26
2023-07-16T08:40:08.986Z,2.12
2023-07-16T08:42:35.703Z,2.07
2023-07-16T08:45:02.458Z,2.00
2023-07-16T08:47:29.207Z,2.10
2023-07-16T08:49:56.435Z,2.08
2023-07-16T08:52:23.241Z,2.12
2023-07-16T08:54:49.953Z,2.22
2023-07-16T08:57:17.980Z,2.24
2023-07-16T08:59:44.743Z,2.11
2023-07-16T09:02:11.497Z,2.12
2023-07-16T09:04:38.260Z,2.20
2023-07-16T09:07:05.608Z,2.23
2023-07-16T09:09:32.361Z,2.23
2023-07-16T09:11:59.038Z,2.42
2023-07-16T09:14:27.073Z,2.17
2023-07-16T09:16:54.046Z,2.20
2023-07-16T09:19:22.584Z,2.22
2023-07-16T09:21:49.331Z,2.36
2023-07-16T09:24:17.951Z,2.21
2023-07-16T09:26:49.424Z,2.31
2023-07-16T09:29:16.204Z,2.05
2023-07-16T09:31:54.207Z,2.36
2023-07-16T09:34:21.064Z,1.99
2023-07-16T09:36:48.366Z,2.12
2023-07-16T09:39:15.314Z,2.25
2023-07-16T09:41:42.009Z,2.26
2023-07-16T09:44:08.732Z,2.31
2023-07-16T09:46:35.452Z,2.08
2023-07-16T09:49:03.511Z,2.24
2023-07-16T09:51:30.386Z,2.18
2023-07-16T09:53:57.083Z,2.07
2023-07-16T09:56:23.799Z,2.13
2023-07-16T09:58:51.867Z,2.16
2023-07-16T10:01:19.745Z,2.23
2023-07-16T10:03:49.865Z,2.05
2023-07-16T10:06:18.006Z,2.25
2023-07-16T10:08:49.789Z,2.12
2023-07-16T10:11:16.854Z,2.56
2023-07-16T10:13:43.544Z,2.32
2023-07-16T10:16:11.276Z,2.23
2023-07-16T10:18:37.992Z,2.24
2023-07-16T10:21:05.398Z,2.18
2023-07-16T10:23:39.702Z,2.35
2023-07-16T10:26:06.554Z,2.02
2023-07-16T10:28:33.265Z,2.05
2023-07-16T10:31:00.029Z,2.22
2023-07-16T10:33:26.814Z,2.21
2023-07-16T10:35:53.524Z,1.97
2023-07-16T10:38:20.262Z,2.01
2023-07-16T10:40:48.283Z,2.38
2023-07-16T10:43:15.016Z,2.14
2023-07-16T10:45:41.791Z,2.10
2023-07-16T10:48:08.541Z,2.26
2023-07-16T10:50:35.342Z,2.13
2023-07-16T10:53:02.058Z,2.28
2023-07-16T10:55:29.655Z,2.00
2023-07-16T10:57:57.724Z,2.22
2023-07-16T11:00:24.518Z,2.12
2023-07-16T11:02:51.280Z,2.12
2023-07-16T11:05:18.657Z,2.13
2023-07-16T11:07:49.445Z,2.17
2023-07-16T11:10:18.158Z,1.96
2023-07-16T11:12:45.005Z,2.13
2023-07-16T11:15:13.060Z,2.08
2023-07-16T11:17:39.827Z,2.09
2023-07-16T11:20:09.187Z,1.96
2023-07-16T11:22:39.590Z,2.09
2023-07-16T11:25:12.127Z,2.14
2023-07-16T11:27:41.396Z,2.44
2023-07-16T11:30:08.763Z,2.21
2023-07-16T11:32:37.752Z,2.05
2023-07-16T11:35:05.803Z,2.29
2023-07-16T11:37:33.725Z,2.19
2023-07-16T11:40:02.943Z,1.88
2023-07-16T11:42:29.782Z,2.05
2023-07-16T11:44:56.924Z,1.86
2023-07-16T11:47:23.654Z,1.84
2023-07-16T11:49:51.836Z,1.69
2023-07-16T11:52:20.281Z,1.75
2023-07-16T11:54:47.001Z,1.62
2023-07-16T11:57:13.721Z,1.92
2023-07-16T11:59:40.463Z,1.84
2023-07-16T12:02:07.211Z,1.91
2023-07-16T12:04:33.879Z,1.80
2023-07-16T12:07:01.993Z,1.84
2023-07-16T12:09:28.699Z,2.02
2023-07-16T12:11:55.399Z,1.95
2023-07-16T12:14:22.098Z,1.95
2023-07-16T12:16:48.817Z,1.72
2023-07-16T12:19:15.590Z,1.99
2023-07-16T12:21:42.330Z,2.12
2023-07-16T12:24:10.435Z,1.89
2023-07-16T12:26:37.180Z,1.86
2023-07-16T12:29:03.904Z,1.67
2023-07-16T12:31:31.176Z,1.68
2023-07-16T12:33:57.988Z,1.68
2023-07-16T12:36:24.710Z,1.77
2023-07-16T12:38:51.396Z,1.68
2023-07-16T12:41:19.440Z,1.53
2023-07-16T12:43:46.823Z,1.86
2023-07-16T12:46:13.636Z,1.99
2023-07-16T12:48:42.817Z,1.97
2023-07-16T12:51:09.829Z,1.74
2023-07-16T12:53:36.522Z,1.74
2023-07-16T12:56:03.227Z,1.74
2023-07-16T12:58:31.267Z,1.69
2023-07-16T13:00:58.103Z,1.87
2023-07-16T13:03:24.892Z,1.86
2023-07-16T13:05:51.633Z,1.94
2023-07-16T13:08:18.309Z,1.96
2023-07-16T13:10:45.091Z,1.95
2023-07-16T13:13:11.840Z,2.05
2023-07-16T13:15:39.894Z,2.01
2023-07-16T13:18:06.652Z,2.18
2023-07-16T13:20:33.419Z,2.06
2023-07-16T13:23:00.162Z,2.07
2023-07-16T13:25:27.026Z,2.10
2023-07-16T13:27:53.742Z,2.11
2023-07-16T13:30:20.506Z,2.06
2023-07-16T13:32:49.082Z,2.11
2023-07-16T13:35:16.047Z,2.12
2023-07-16T13:37:42.765Z,2.19
2023-07-16T13:40:09.978Z,1.83
2023-07-16T13:42:36.718Z,2.04
2023-07-16T13:45:03.904Z,2.69
2023-07-16T13:47:30.676Z,2.96
2023-07-16T13:49:58.810Z,2.69
2023-07-16T13:52:25.511Z,2.39
2023-07-16T13:54:52.236Z,2.84
2023-07-16T13:57:18.950Z,2.88
2023-07-16T13:59:45.719Z,2.83
2023-07-16T14:02:12.559Z,3.07
2023-07-16T14:04:39.414Z,2.88
2023-07-16T14:07:07.532Z,2.68
2023-07-16T14:09:34.239Z,2.09
2023-07-16T14:12:00.962Z,1.82
2023-07-16T14:14:27.751Z,2.05
2023-07-16T14:16:54.524Z,1.96
2023-07-16T14:19:21.314Z,1.94
2023-07-16T14:21:48.052Z,2.18
2023-07-16T14:24:16.105Z,2.11
2023-07-16T14:26:42.810Z,2.03
2023-07-16T14:29:09.558Z,2.10
2023-07-16T14:31:36.367Z,2.11
2023-07-16T14:34:03.123Z,2.22
2023-07-16T14:36:29.817Z,2.20
2023-07-16T14:38:56.528Z,1.99
2023-07-16T14:41:24.570Z,2.23
2023-07-16T14:43:51.336Z,2.85
2023-07-16T14:46:18.757Z,2.87
2023-07-16T14:48:45.846Z,3.07
2023-07-16T14:51:13.720Z,2.95
2023-07-16T14:53:40.413Z,2.85
2023-07-16T14:56:07.129Z,2.97
2023-07-16T14:58:35.204Z,2.59
2023-07-16T15:01:01.980Z,2.82
2023-07-16T15:03:28.703Z,2.85
2023-07-16T15:05:57.272Z,2.56
2023-07-16T15:08:24.007Z,2.52
2023-07-16T15:10:50.770Z,2.45
2023-07-16T15:13:17.483Z,2.55
2023-07-16T15:15:49.581Z,2.74
2023-07-16T15:18:16.397Z,2.68
2023-07-16T15:20:43.170Z,2.77
2023-07-16T15:23:10.011Z,2.62
2023-07-16T15:25:36.748Z,2.55
2023-07-16T15:28:03.581Z,2.54
2023-07-16T15:30:30.266Z,2.59
2023-07-16T15:32:58.361Z,2.73
2023-07-16T15:35:25.101Z,2.65
2023-07-16T15:37:51.818Z,2.65
2023-07-16T15:40:18.630Z,2.64
2023-07-16T15:42:45.327Z,2.82
2023-07-16T15:45:12.719Z,2.74
2023-07-16T15:47:39.560Z,2.69
2023-07-16T15:50:08.258Z,2.51
2023-07-16T15:52:35.094Z,2.49
2023-07-16T15:55:01.807Z,2.46
2023-07-16T15:57:28.517Z,2.60
2023-07-16T15:59:55.204Z,2.41
2023-07-16T16:02:22.529Z,2.43
2023-07-16T16:04:49.350Z,2.57
2023-07-16T16:07:17.380Z,2.61
2023-07-16T16:09:44.107Z,2.80
2023-07-16T16:12:10.841Z,2.60
2023-07-16T16:14:37.526Z,2.19
2023-07-16T16:17:08.146Z,2.53
2023-07-16T16:19:35.307Z,2.51
2023-07-16T16:22:02.555Z,2.36
2023-07-16T16:24:30.708Z,2.24
2023-07-16T16:26:57.411Z,2.61
2023-07-16T16:29:24.155Z,2.31
2023-07-16T16:31:51.141Z,2.34
2023-07-16T16:34:17.918Z,2.48
2023-07-16T16:36:44.606Z,2.50
2023-07-16T16:39:11.369Z,2.51
2023-07-16T16:41:39.380Z,2.56
2023-07-16T16:44:06.612Z,2.31
2023-07-16T16:46:33.310Z,2.53
2023-07-16T16:49:02.932Z,2.66
2023-07-16T16:51:29.639Z,2.41
2023-07-16T16:53:56.353Z,2.36
2023-07-16T16:56:23.049Z,2.64
2023-07-16T16:58:51.100Z,2.47
2023-07-16T17:01:18.010Z,2.51
2023-07-16T17:03:44.923Z,2.61
2023-07-16T17:06:11.622Z,2.57
2023-07-16T17:08:38.313Z,2.61
2023-07-16T17:11:05.037Z,2.71
2023-07-16T17:13:31.726Z,2.75
2023-07-16T17:15:59.806Z,2.60
2023-07-16T17:18:26.541Z,2.54
2023-07-16T17:20:53.334Z,2.43
2023-07-16T17:23:20.177Z,2.57
2023-07-16T17:25:46.917Z,2.54
2023-07-16T17:28:13.652Z,2.70
2023-07-16T17:30:40.426Z,2.59
2023-07-16T17:33:08.664Z,2.47
2023-07-16T17:35:35.447Z,2.45
2023-07-16T17:38:02.138Z,2.29
2023-07-16T17:40:29.791Z,2.57
2023-07-16T17:42:56.536Z,2.51
2023-07-16T17:45:23.253Z,2.50
2023-07-16T17:47:49.984Z,2.53
2023-07-16T17:50:18.283Z,2.61
2023-07-16T17:52:44.983Z,2.95
2023-07-16T17:55:11.965Z,2.88
2023-07-16T17:57:38.709Z,2.77
2023-07-16T18:00:21.466Z,2.84
2023-07-16T18:02:50.575Z,2.64
2023-07-16T18:05:19.012Z,2.64
2023-07-16T18:07:45.775Z,2.53
2023-07-16T18:10:12.471Z,2.52
2023-07-16T18:12:39.225Z,2.69
2023-07-16T18:15:07.153Z,2.59
2023-07-16T18:17:33.919Z,2.73
2023-07-16T18:20:01.164Z,2.61
2023-07-16T18:22:31.594Z,2.61
2023-07-16T18:24:58.782Z,2.53
2023-07-16T18:27:25.928Z,2.52
2023-07-16T18:29:52.626Z,2.73
2023-07-16T18:32:19.449Z,2.53
2023-07-16T18:34:46.258Z,2.69
2023-07-16T18:37:13.078Z,2.76
2023-07-16T18:39:41.120Z,2.61
2023-07-16T18:42:07.966Z,2.57
2023-07-16T18:44:34.713Z,2.80
2023-07-16T18:47:01.412Z,2.68
2023-07-16T18:49:28.097Z,2.76
2023-07-16T18:51:54.792Z,2.70
2023-07-16T18:54:21.700Z,2.71
2023-07-16T18:56:50.042Z,2.76
2023-07-16T18:59:16.754Z,2.66
2023-07-16T19:01:43.504Z,2.78
2023-07-16T19:04:10.373Z,2.96
2023-07-16T19:06:37.088Z,2.65
2023-07-16T19:09:03.996Z,2.67
2023-07-16T19:11:30.726Z,2.87
2023-07-16T19:13:58.772Z,2.87
2023-07-16T19:16:25.514Z,2.76
2023-07-16T19:18:52.231Z,2.73
2023-07-16T19:21:19.028Z,2.89
2023-07-16T19:23:45.692Z,2.57
2023-07-16T19:26:12.394Z,2.64
2023-07-16T19:28:39.100Z,2.69
2023-07-16T19:31:07.173Z,2.47
2023-07-16T19:33:33.881Z,2.91
2023-07-16T19:36:12.943Z,2.69
2023-07-16T19:38:41.283Z,2.73
2023-07-16T19:41:08.148Z,2.63
2023-07-16T19:43:34.919Z,2.60
2023-07-16T19:46:01.718Z,2.81
2023-07-16T19:48:29.742Z,2.81
2023-07-16T19:50:56.480Z,2.79
2023-07-16T19:53:23.213Z,2.92
2023-07-16T19:55:49.872Z,2.67
2023-07-16T19:58:16.655Z,2.69
2023-07-16T20:00:43.471Z,2.80
2023-07-16T20:03:10.242Z,2.50
2023-07-16T20:05:38.442Z,2.72
2023-07-16T20:08:05.196Z,2.63
2023-07-16T20:10:31.928Z,2.93
2023-07-16T20:12:58.618Z,2.59
2023-07-16T20:15:25.370Z,2.76
2023-07-16T20:17:52.135Z,2.64
2023-07-16T20:20:18.867Z,2.98
2023-07-16T20:22:46.927Z,2.80
2023-07-16T20:25:13.695Z,2.69
2023-07-16T20:27:42.576Z,2.87
2023-07-16T20:30:09.953Z,2.67
2023-07-16T20:32:37.041Z,2.69
2023-07-16T20:35:04.032Z,2.97
2023-07-16T20:37:30.723Z,3.02
2023-07-16T20:39:58.763Z,3.10
2023-07-16T20:42:25.476Z,2.80
2023-07-16T20:45:13.698Z,2.75
2023-07-16T20:47:40.404Z,3.00
2023-07-16T20:50:07.680Z,2.58
2023-07-16T20:52:34.414Z,2.71
2023-07-16T20:55:02.441Z,2.93
2023-07-16T20:57:29.142Z,3.17
2023-07-16T20:59:55.806Z,2.85
2023-07-16T21:02:22.577Z,2.84
2023-07-16T21:04:49.329Z,2.72
2023-07-16T21:07:16.050Z,3.00
2023-07-16T21:09:42.728Z,2.94
2023-07-16T21:12:10.830Z,2.96
2023-07-16T21:14:37.506Z,2.89
2023-07-16T21:17:04.639Z,3.02
2023-07-16T21:19:31.428Z,2.91
2023-07-16T21:21:58.132Z,2.87
2023-07-16T21:24:24.837Z,2.94
2023-07-16T21:26:51.516Z,2.88
2023-07-16T21:29:19.576Z,3.13
2023-07-16T21:31:46.259Z,2.98
2023-07-16T21:34:12.948Z,2.97
2023-07-16T21:36:39.635Z,2.89
2023-07-16T21:39:06.577Z,3.09
2023-07-16T21:41:33.274Z,2.92
2023-07-16T21:44:00.035Z,2.91
2023-07-16T21:46:28.140Z,3.00
2023-07-16T21:48:54.852Z,3.03
2023-07-16T21:51:21.536Z,3.04
2023-07-16T21:53:48.264Z,2.91
2023-07-16T21:56:14.940Z,3.15
2023-07-16T21:58:41.626Z,3.00
2023-07-16T22:01:08.364Z,2.96
2023-07-16T22:03:36.494Z,3.05
2023-07-16T22:06:03.374Z,2.89
2023-07-16T22:08:30.070Z,2.62
2023-07-16T22:10:56.763Z,2.90
2023-07-16T22:13:23.480Z,3.08
2023-07-16T22:15:50.169Z,2.79
2023-07-16T22:18:17.006Z,3.07
2023-07-16T22:20:45.057Z,2.98
2023-07-16T22:23:11.813Z,3.12
2023-07-16T22:25:38.597Z,3.38
2023-07-16T22:28:05.331Z,3.06
2023-07-16T22:30:32.047Z,3.15
2023-07-16T22:32:58.778Z,3.21
2023-07-16T22:35:25.561Z,3.26
2023-07-16T22:37:53.609Z,3.00
2023-07-16T22:40:20.320Z,2.70
2023-07-16T22:42:47.033Z,2.76
2023-07-16T22:45:13.801Z,3.09
2023-07-16T22:47:40.527Z,2.93
2023-07-16T22:50:08.440Z,2.77
2023-07-16T22:52:35.157Z,2.97
2023-07-16T22:55:03.527Z,3.02
2023-07-16T22:57:30.213Z,2.89
2023-07-16T22:59:56.891Z,3.10
2023-07-16T23:02:23.625Z,3.13
2023-07-16T23:04:50.394Z,3.13
2023-07-16T23:07:17.165Z,3.06
2023-07-16T23:09:43.849Z,2.94
2023-07-16T23:12:11.897Z,3.06
2023-07-16T23:14:38.600Z,3.17
2023-07-16T23:17:05.604Z,3.12
2023-07-16T23:19:32.284Z,3.30
2023-07-16T23:21:58.982Z,3.21
2023-07-16T23:24:25.707Z,3.07
2023-07-16T23:26:52.396Z,3.01
2023-07-16T23:29:20.459Z,3.01
2023-07-16T23:31:47.194Z,3.18
2023-07-16T23:34:14.009Z,2.81
2023-07-16T23:36:40.673Z,3.08
2023-07-16T23:39:07.409Z,2.62
2023-07-16T23:41:34.118Z,2.82
2023-07-16T23:44:00.842Z,2.93
2023-07-16T23:46:28.943Z,2.95
2023-07-16T23:48:55.627Z,2.92
2023-07-16T23:51:22.335Z,3.10
2023-07-16T23:53:49.017Z,2.90
2023-07-16T23:56:15.789Z,3.02
2023-07-16T23:58:42.490Z,3.00
